sensor_id;sensor_type;location;lat;lon;timestamp;pressure;altitude;pressure_sealevel;temperature;humidity
22481;BME280;11407;56.964;-2.212;2022-07-06T00:01:03;102027.00;;;26.15;36.12
22481;BME280;11407;56.964;-2.212;2022-07-06T00:03:29;102026.09;;;26.23;35.85
22481;BME280;11407;56.964;-2.212;2022-07-06T00:05:56;102018.25;;;26.28;35.89
22481;BME280;11407;56.964;-2.212;2022-07-06T00:08:21;102026.84;;;26.31;36.01
22481;BME280;11407;56.964;-2.212;2022-07-06T00:10:46;102012.50;;;26.45;35.39
22481;BME280;11407;56.964;-2.212;2022-07-06T00:13:12;102015.72;;;26.26;35.83
22481;BME280;11407;56.964;-2.212;2022-07-06T00:15:37;102006.13;;;26.24;35.95
22481;BME280;11407;56.964;-2.212;2022-07-06T00:18:03;102005.13;;;26.25;35.29
22481;BME280;11407;56.964;-2.212;2022-07-06T00:20:28;102003.97;;;25.90;36.33
22481;BME280;11407;56.964;-2.212;2022-07-06T00:22:54;102000.72;;;26.38;35.19
22481;BME280;11407;56.964;-2.212;2022-07-06T00:25:19;101997.72;;;25.90;36.40
22481;BME280;11407;56.964;-2.212;2022-07-06T00:27:44;101998.75;;;26.18;35.61
22481;BME280;11407;56.964;-2.212;2022-07-06T00:30:10;101992.06;;;26.43;35.45
22481;BME280;11407;56.964;-2.212;2022-07-06T00:32:36;101999.47;;;26.49;35.23
22481;BME280;11407;56.964;-2.212;2022-07-06T00:35:01;101994.09;;;26.26;35.48
22481;BME280;11407;56.964;-2.212;2022-07-06T00:37:26;101993.56;;;26.45;34.86
22481;BME280;11407;56.964;-2.212;2022-07-06T00:39:52;101982.91;;;26.58;35.07
22481;BME280;11407;56.964;-2.212;2022-07-06T00:42:17;101980.84;;;26.60;34.96
22481;BME280;11407;56.964;-2.212;2022-07-06T00:44:43;101983.13;;;26.56;34.77
22481;BME280;11407;56.964;-2.212;2022-07-06T00:47:08;101981.22;;;26.57;34.83
22481;BME280;11407;56.964;-2.212;2022-07-06T00:49:34;101988.53;;;26.56;35.15
22481;BME280;11407;56.964;-2.212;2022-07-06T00:52:18;101991.72;;;26.46;35.26
22481;BME280;11407;56.964;-2.212;2022-07-06T00:54:45;101989.66;;;26.48;35.06
22481;BME280;11407;56.964;-2.212;2022-07-06T00:57:11;101979.19;;;26.59;35.11
22481;BME280;11407;56.964;-2.212;2022-07-06T00:59:37;101978.16;;;26.17;35.62
22481;BME280;11407;56.964;-2.212;2022-07-06T01:02:03;101970.25;;;26.15;35.48
22481;BME280;11407;56.964;-2.212;2022-07-06T01:04:28;101968.09;;;26.25;35.43
22481;BME280;11407;56.964;-2.212;2022-07-06T01:06:54;101971.28;;;26.43;35.89
22481;BME280;11407;56.964;-2.212;2022-07-06T01:09:20;101972.28;;;26.28;35.81
22481;BME280;11407;56.964;-2.212;2022-07-06T01:11:46;101966.50;;;26.45;35.46
22481;BME280;11407;56.964;-2.212;2022-07-06T01:14:14;101965.66;;;26.01;36.66
22481;BME280;11407;56.964;-2.212;2022-07-06T01:16:39;101967.44;;;25.80;37.23
22481;BME280;11407;56.964;-2.212;2022-07-06T01:19:05;101964.28;;;25.91;36.54
22481;BME280;11407;56.964;-2.212;2022-07-06T01:21:30;101964.84;;;26.15;36.11
22481;BME280;11407;56.964;-2.212;2022-07-06T01:23:55;101959.22;;;26.17;36.51
22481;BME280;11407;56.964;-2.212;2022-07-06T01:26:21;101958.59;;;26.15;36.94
22481;BME280;11407;56.964;-2.212;2022-07-06T01:28:51;101955.97;;;26.36;36.17
22481;BME280;11407;56.964;-2.212;2022-07-06T01:31:22;101947.13;;;26.27;37.02
22481;BME280;11407;56.964;-2.212;2022-07-06T01:33:49;101945.09;;;26.15;36.96
22481;BME280;11407;56.964;-2.212;2022-07-06T01:36:16;101942.38;;;26.29;36.74
22481;BME280;11407;56.964;-2.212;2022-07-06T01:38:49;101933.13;;;26.38;36.78
22481;BME280;11407;56.964;-2.212;2022-07-06T01:41:15;101926.31;;;26.56;36.18
22481;BME280;11407;56.964;-2.212;2022-07-06T01:43:40;101925.72;;;26.61;36.34
22481;BME280;11407;56.964;-2.212;2022-07-06T01:46:06;101928.03;;;26.43;36.90
22481;BME280;11407;56.964;-2.212;2022-07-06T01:48:32;101925.78;;;26.32;37.20
22481;BME280;11407;56.964;-2.212;2022-07-06T01:50:57;101922.28;;;26.38;36.74
22481;BME280;11407;56.964;-2.212;2022-07-06T01:53:23;101915.97;;;26.31;36.66
22481;BME280;11407;56.964;-2.212;2022-07-06T01:55:48;101911.09;;;26.55;36.32
22481;BME280;11407;56.964;-2.212;2022-07-06T01:58:14;101912.88;;;26.34;37.01
22481;BME280;11407;56.964;-2.212;2022-07-06T02:00:40;101911.16;;;26.41;37.13
22481;BME280;11407;56.964;-2.212;2022-07-06T02:03:05;101901.88;;;26.36;36.36
22481;BME280;11407;56.964;-2.212;2022-07-06T02:05:31;101901.69;;;26.37;36.95
22481;BME280;11407;56.964;-2.212;2022-07-06T02:07:56;101902.91;;;26.35;36.96
22481;BME280;11407;56.964;-2.212;2022-07-06T02:10:22;101891.91;;;26.36;36.83
22481;BME280;11407;56.964;-2.212;2022-07-06T02:12:47;101899.56;;;26.33;37.13
22481;BME280;11407;56.964;-2.212;2022-07-06T02:15:13;101886.97;;;26.25;37.24
22481;BME280;11407;56.964;-2.212;2022-07-06T02:17:38;101879.53;;;26.27;37.76
22481;BME280;11407;56.964;-2.212;2022-07-06T02:20:05;101871.22;;;26.29;37.60
22481;BME280;11407;56.964;-2.212;2022-07-06T02:22:30;101860.47;;;26.35;37.13
22481;BME280;11407;56.964;-2.212;2022-07-06T02:24:56;101870.00;;;26.31;37.16
22481;BME280;11407;56.964;-2.212;2022-07-06T02:27:21;101862.72;;;26.46;37.33
22481;BME280;11407;56.964;-2.212;2022-07-06T02:29:47;101860.50;;;26.50;36.94
22481;BME280;11407;56.964;-2.212;2022-07-06T02:32:12;101853.88;;;26.38;37.49
22481;BME280;11407;56.964;-2.212;2022-07-06T02:34:37;101848.47;;;26.38;37.31
22481;BME280;11407;56.964;-2.212;2022-07-06T02:37:03;101849.94;;;26.40;37.16
22481;BME280;11407;56.964;-2.212;2022-07-06T02:39:28;101845.38;;;26.41;37.31
22481;BME280;11407;56.964;-2.212;2022-07-06T02:41:54;101846.25;;;26.27;37.40
22481;BME280;11407;56.964;-2.212;2022-07-06T02:44:19;101828.28;;;26.19;37.75
22481;BME280;11407;56.964;-2.212;2022-07-06T02:46:45;101831.63;;;26.21;37.74
22481;BME280;11407;56.964;-2.212;2022-07-06T02:49:10;101824.06;;;26.17;37.90
22481;BME280;11407;56.964;-2.212;2022-07-06T02:51:36;101831.16;;;26.18;38.03
22481;BME280;11407;56.964;-2.212;2022-07-06T02:54:01;101827.47;;;26.04;38.89
22481;BME280;11407;56.964;-2.212;2022-07-06T02:56:27;101829.44;;;26.31;37.71
22481;BME280;11407;56.964;-2.212;2022-07-06T02:58:53;101828.28;;;26.19;38.47
22481;BME280;11407;56.964;-2.212;2022-07-06T03:01:19;101834.34;;;26.21;38.65
22481;BME280;11407;56.964;-2.212;2022-07-06T03:03:44;101815.94;;;26.31;38.08
22481;BME280;11407;56.964;-2.212;2022-07-06T03:06:10;101820.16;;;26.19;38.78
22481;BME280;11407;56.964;-2.212;2022-07-06T03:08:35;101817.38;;;26.13;38.35
22481;BME280;11407;56.964;-2.212;2022-07-06T03:11:01;101810.03;;;26.28;38.30
22481;BME280;11407;56.964;-2.212;2022-07-06T03:13:27;101815.94;;;26.31;38.24
22481;BME280;11407;56.964;-2.212;2022-07-06T03:15:53;101815.72;;;26.33;38.66
22481;BME280;11407;56.964;-2.212;2022-07-06T03:18:19;101817.19;;;26.35;38.69
22481;BME280;11407;56.964;-2.212;2022-07-06T03:20:44;101813.41;;;26.44;38.29
22481;BME280;11407;56.964;-2.212;2022-07-06T03:23:10;101809.47;;;26.47;38.19
22481;BME280;11407;56.964;-2.212;2022-07-06T03:25:35;101808.97;;;26.57;37.97
22481;BME280;11407;56.964;-2.212;2022-07-06T03:28:00;101810.63;;;26.58;38.12
22481;BME280;11407;56.964;-2.212;2022-07-06T03:30:26;101802.81;;;26.70;37.94
22481;BME280;11407;56.964;-2.212;2022-07-06T03:32:51;101788.41;;;26.63;37.91
22481;BME280;11407;56.964;-2.212;2022-07-06T03:35:17;101787.09;;;26.59;38.08
22481;BME280;11407;56.964;-2.212;2022-07-06T03:37:43;101778.69;;;26.68;38.28
22481;BME280;11407;56.964;-2.212;2022-07-06T03:40:08;101768.47;;;26.91;37.67
22481;BME280;11407;56.964;-2.212;2022-07-06T03:42:35;101777.31;;;26.79;37.78
22481;BME280;11407;56.964;-2.212;2022-07-06T03:45:01;101775.13;;;26.68;37.98
22481;BME280;11407;56.964;-2.212;2022-07-06T03:47:26;101787.00;;;26.67;37.98
22481;BME280;11407;56.964;-2.212;2022-07-06T03:49:51;101786.78;;;26.68;38.01
22481;BME280;11407;56.964;-2.212;2022-07-06T03:52:17;101775.06;;;26.82;38.06
22481;BME280;11407;56.964;-2.212;2022-07-06T03:54:42;101775.00;;;26.76;38.12
22481;BME280;11407;56.964;-2.212;2022-07-06T03:57:07;101773.13;;;26.76;38.20
22481;BME280;11407;56.964;-2.212;2022-07-06T03:59:33;101779.22;;;26.85;38.10
22481;BME280;11407;56.964;-2.212;2022-07-06T04:01:58;101771.06;;;26.78;38.22
22481;BME280;11407;56.964;-2.212;2022-07-06T04:04:24;101766.53;;;26.85;37.99
22481;BME280;11407;56.964;-2.212;2022-07-06T04:06:49;101763.22;;;26.83;38.58
22481;BME280;11407;56.964;-2.212;2022-07-06T04:09:15;101762.81;;;26.65;38.45
22481;BME280;11407;56.964;-2.212;2022-07-06T04:11:40;101756.22;;;26.95;38.10
22481;BME280;11407;56.964;-2.212;2022-07-06T04:14:06;101763.00;;;26.85;38.60
22481;BME280;11407;56.964;-2.212;2022-07-06T04:16:31;101762.63;;;26.88;38.73
22481;BME280;11407;56.964;-2.212;2022-07-06T04:18:56;101754.53;;;26.94;38.23
22481;BME280;11407;56.964;-2.212;2022-07-06T04:21:22;101752.97;;;26.79;38.55
22481;BME280;11407;56.964;-2.212;2022-07-06T04:23:47;101748.16;;;27.02;38.12
22481;BME280;11407;56.964;-2.212;2022-07-06T04:26:13;101750.09;;;27.08;38.05
22481;BME280;11407;56.964;-2.212;2022-07-06T04:28:38;101748.09;;;27.23;37.97
22481;BME280;11407;56.964;-2.212;2022-07-06T04:31:04;101740.13;;;27.15;38.12
22481;BME280;11407;56.964;-2.212;2022-07-06T04:33:29;101740.25;;;26.52;39.25
22481;BME280;11407;56.964;-2.212;2022-07-06T04:35:54;101731.81;;;26.89;38.68
22481;BME280;11407;56.964;-2.212;2022-07-06T04:38:20;101723.53;;;27.24;38.09
22481;BME280;11407;56.964;-2.212;2022-07-06T04:40:45;101728.41;;;27.42;37.70
22481;BME280;11407;56.964;-2.212;2022-07-06T04:43:14;101728.63;;;27.40;37.79
22481;BME280;11407;56.964;-2.212;2022-07-06T04:45:39;101726.56;;;27.42;37.85
22481;BME280;11407;56.964;-2.212;2022-07-06T04:48:05;101724.19;;;27.66;38.14
22481;BME280;11407;56.964;-2.212;2022-07-06T04:50:33;101720.28;;;27.82;37.41
22481;BME280;11407;56.964;-2.212;2022-07-06T04:52:59;101720.53;;;27.93;37.23
22481;BME280;11407;56.964;-2.212;2022-07-06T04:55:24;101719.47;;;27.88;37.34
22481;BME280;11407;56.964;-2.212;2022-07-06T04:57:50;101714.66;;;27.90;37.23
22481;BME280;11407;56.964;-2.212;2022-07-06T05:00:17;101723.81;;;27.76;37.50
22481;BME280;11407;56.964;-2.212;2022-07-06T05:02:43;101716.72;;;27.75;37.70
22481;BME280;11407;56.964;-2.212;2022-07-06T05:05:08;101724.63;;;27.76;37.41
22481;BME280;11407;56.964;-2.212;2022-07-06T05:07:36;101718.59;;;27.74;37.96
22481;BME280;11407;56.964;-2.212;2022-07-06T05:10:06;101719.03;;;27.84;37.46
22481;BME280;11407;56.964;-2.212;2022-07-06T05:12:32;101718.63;;;27.87;37.75
22481;BME280;11407;56.964;-2.212;2022-07-06T05:14:57;101721.34;;;27.94;37.32
22481;BME280;11407;56.964;-2.212;2022-07-06T05:17:24;101720.56;;;28.06;37.30
22481;BME280;11407;56.964;-2.212;2022-07-06T05:19:49;101708.06;;;28.12;37.31
22481;BME280;11407;56.964;-2.212;2022-07-06T05:22:15;101698.03;;;28.12;37.18
22481;BME280;11407;56.964;-2.212;2022-07-06T05:24:40;101705.34;;;28.05;37.40
22481;BME280;11407;56.964;-2.212;2022-07-06T05:27:05;101699.50;;;28.08;37.68
22481;BME280;11407;56.964;-2.212;2022-07-06T05:29:31;101691.38;;;28.21;37.40
22481;BME280;11407;56.964;-2.212;2022-07-06T05:31:56;101704.94;;;28.15;37.67
22481;BME280;11407;56.964;-2.212;2022-07-06T05:34:22;101697.66;;;28.15;37.82
22481;BME280;11407;56.964;-2.212;2022-07-06T05:36:47;101689.50;;;28.15;37.63
22481;BME280;11407;56.964;-2.212;2022-07-06T05:39:12;101689.13;;;28.31;37.52
22481;BME280;11407;56.964;-2.212;2022-07-06T05:41:38;101690.16;;;28.37;37.57
22481;BME280;11407;56.964;-2.212;2022-07-06T05:44:03;101685.59;;;28.31;37.64
22481;BME280;11407;56.964;-2.212;2022-07-06T05:46:29;101683.50;;;28.39;37.35
22481;BME280;11407;56.964;-2.212;2022-07-06T05:48:54;101688.31;;;28.50;37.09
22481;BME280;11407;56.964;-2.212;2022-07-06T05:51:39;101686.63;;;28.55;37.14
22481;BME280;11407;56.964;-2.212;2022-07-06T05:54:04;101680.34;;;28.55;37.15
22481;BME280;11407;56.964;-2.212;2022-07-06T05:56:29;101676.41;;;28.51;37.31
22481;BME280;11407;56.964;-2.212;2022-07-06T05:58:55;101673.69;;;28.44;37.48
22481;BME280;11407;56.964;-2.212;2022-07-06T06:01:20;101676.19;;;28.46;37.71
22481;BME280;11407;56.964;-2.212;2022-07-06T06:03:46;101677.66;;;28.42;37.65
22481;BME280;11407;56.964;-2.212;2022-07-06T06:06:11;101675.38;;;28.58;37.35
22481;BME280;11407;56.964;-2.212;2022-07-06T06:08:37;101673.47;;;28.52;37.46
22481;BME280;11407;56.964;-2.212;2022-07-06T06:11:02;101664.69;;;28.70;37.58
22481;BME280;11407;56.964;-2.212;2022-07-06T06:13:27;101657.59;;;28.62;37.11
22481;BME280;11407;56.964;-2.212;2022-07-06T06:15:53;101662.00;;;28.63;37.60
22481;BME280;11407;56.964;-2.212;2022-07-06T06:18:18;101666.59;;;28.69;37.36
22481;BME280;11407;56.964;-2.212;2022-07-06T06:20:45;101652.59;;;28.53;37.89
22481;BME280;11407;56.964;-2.212;2022-07-06T06:23:10;101659.91;;;28.52;37.69
22481;BME280;11407;56.964;-2.212;2022-07-06T06:25:37;101658.88;;;28.60;37.77
22481;BME280;11407;56.964;-2.212;2022-07-06T06:28:04;101659.91;;;28.65;37.46
22481;BME280;11407;56.964;-2.212;2022-07-06T06:30:30;101651.38;;;28.55;37.91
22481;BME280;11407;56.964;-2.212;2022-07-06T06:35:34;101652.00;;;28.64;38.02
22481;BME280;11407;56.964;-2.212;2022-07-06T06:38:00;101653.22;;;28.61;38.18
22481;BME280;11407;56.964;-2.212;2022-07-06T06:40:25;101662.41;;;28.67;37.77
22481;BME280;11407;56.964;-2.212;2022-07-06T06:42:51;101662.63;;;28.72;37.96
22481;BME280;11407;56.964;-2.212;2022-07-06T06:45:16;101660.09;;;28.70;37.99
22481;BME280;11407;56.964;-2.212;2022-07-06T06:47:42;101661.34;;;28.74;37.98
22481;BME280;11407;56.964;-2.212;2022-07-06T06:50:07;101660.94;;;28.90;37.52
22481;BME280;11407;56.964;-2.212;2022-07-06T06:52:33;101663.25;;;28.93;37.28
22481;BME280;11407;56.964;-2.212;2022-07-06T06:54:58;101666.59;;;28.76;37.96
22481;BME280;11407;56.964;-2.212;2022-07-06T06:57:25;101668.47;;;28.82;37.42
22481;BME280;11407;56.964;-2.212;2022-07-06T06:59:50;101668.06;;;28.85;37.77
22481;BME280;11407;56.964;-2.212;2022-07-06T07:02:16;101660.94;;;28.77;37.82
22481;BME280;11407;56.964;-2.212;2022-07-06T07:04:41;101669.91;;;28.78;37.83
22481;BME280;11407;56.964;-2.212;2022-07-06T07:07:07;101678.50;;;28.55;37.98
22481;BME280;11407;56.964;-2.212;2022-07-06T07:09:32;101671.19;;;28.62;38.00
22481;BME280;11407;56.964;-2.212;2022-07-06T07:11:57;101664.06;;;28.68;38.17
22481;BME280;11407;56.964;-2.212;2022-07-06T07:14:23;101663.66;;;28.71;38.01
22481;BME280;11407;56.964;-2.212;2022-07-06T07:16:49;101650.28;;;28.89;37.43
22481;BME280;11407;56.964;-2.212;2022-07-06T07:19:14;101657.59;;;28.88;37.90
22481;BME280;11407;56.964;-2.212;2022-07-06T07:21:39;101667.19;;;28.71;37.70
22481;BME280;11407;56.964;-2.212;2022-07-06T07:24:05;101655.09;;;28.74;37.96
22481;BME280;11407;56.964;-2.212;2022-07-06T07:26:32;101647.38;;;28.45;38.21
22481;BME280;11407;56.964;-2.212;2022-07-06T07:28:58;101649.06;;;28.59;38.35
22481;BME280;11407;56.964;-2.212;2022-07-06T07:31:23;101641.94;;;28.64;38.51
22481;BME280;11407;56.964;-2.212;2022-07-06T07:33:49;101631.72;;;28.66;38.86
22481;BME280;11407;56.964;-2.212;2022-07-06T07:36:14;101633.56;;;28.92;38.22
22481;BME280;11407;56.964;-2.212;2022-07-06T07:38:40;101625.03;;;28.88;38.70
22481;BME280;11407;56.964;-2.212;2022-07-06T07:41:05;101613.72;;;29.04;39.01
22481;BME280;11407;56.964;-2.212;2022-07-06T07:43:31;101623.06;;;29.08;39.03
22481;BME280;11407;56.964;-2.212;2022-07-06T07:45:57;101628.53;;;29.02;38.99
22481;BME280;11407;56.964;-2.212;2022-07-06T07:48:22;101618.03;;;29.12;38.33
22481;BME280;11407;56.964;-2.212;2022-07-06T07:50:47;101617.44;;;29.16;38.91
22481;BME280;11407;56.964;-2.212;2022-07-06T07:53:13;101609.41;;;29.28;39.01
22481;BME280;11407;56.964;-2.212;2022-07-06T07:55:38;101608.75;;;29.32;38.80
22481;BME280;11407;56.964;-2.212;2022-07-06T07:58:04;101615.00;;;29.45;39.26
22481;BME280;11407;56.964;-2.212;2022-07-06T08:00:29;101604.53;;;28.99;39.75
22481;BME280;11407;56.964;-2.212;2022-07-06T08:02:55;101615.59;;;28.78;40.17
22481;BME280;11407;56.964;-2.212;2022-07-06T08:05:21;101612.50;;;28.68;41.14
22481;BME280;11407;56.964;-2.212;2022-07-06T08:07:46;101593.31;;;29.33;39.60
22481;BME280;11407;56.964;-2.212;2022-07-06T08:10:12;101590.97;;;28.92;41.19
22481;BME280;11407;56.964;-2.212;2022-07-06T08:12:37;101585.56;;;29.42;40.58
22481;BME280;11407;56.964;-2.212;2022-07-06T08:15:04;101574.94;;;29.28;40.76
22481;BME280;11407;56.964;-2.212;2022-07-06T08:17:30;101572.28;;;29.15;41.60
22481;BME280;11407;56.964;-2.212;2022-07-06T08:19:56;101567.63;;;29.29;41.40
22481;BME280;11407;56.964;-2.212;2022-07-06T08:22:22;101562.72;;;29.50;41.19
22481;BME280;11407;56.964;-2.212;2022-07-06T08:24:48;101568.19;;;29.74;40.80
22481;BME280;11407;56.964;-2.212;2022-07-06T08:27:13;101556.91;;;30.02;39.90
22481;BME280;11407;56.964;-2.212;2022-07-06T08:29:38;101577.06;;;29.94;40.18
22481;BME280;11407;56.964;-2.212;2022-07-06T08:32:04;101569.13;;;30.17;40.24
22481;BME280;11407;56.964;-2.212;2022-07-06T08:34:29;101561.75;;;30.00;40.06
22481;BME280;11407;56.964;-2.212;2022-07-06T08:36:55;101556.88;;;30.08;39.96
22481;BME280;11407;56.964;-2.212;2022-07-06T08:39:20;101557.47;;;30.10;39.68
22481;BME280;11407;56.964;-2.212;2022-07-06T08:41:47;101565.22;;;30.13;39.79
22481;BME280;11407;56.964;-2.212;2022-07-06T08:44:14;101555.06;;;30.02;40.01
22481;BME280;11407;56.964;-2.212;2022-07-06T08:46:40;101547.34;;;30.17;39.56
22481;BME280;11407;56.964;-2.212;2022-07-06T08:49:07;101564.66;;;30.05;39.53
22481;BME280;11407;56.964;-2.212;2022-07-06T08:51:35;101542.09;;;30.22;39.47
22481;BME280;11407;56.964;-2.212;2022-07-06T08:54:02;101550.31;;;29.91;39.68
22481;BME280;11407;56.964;-2.212;2022-07-06T08:56:28;101541.59;;;30.07;39.08
22481;BME280;11407;56.964;-2.212;2022-07-06T08:58:54;101530.00;;;30.60;38.68
22481;BME280;11407;56.964;-2.212;2022-07-06T09:01:19;101520.66;;;30.86;37.79
22481;BME280;11407;56.964;-2.212;2022-07-06T09:03:49;101531.72;;;31.09;37.51
22481;BME280;11407;56.964;-2.212;2022-07-06T09:06:16;101512.38;;;31.28;37.95
22481;BME280;11407;56.964;-2.212;2022-07-06T09:08:45;101508.25;;;31.37;37.45
22481;BME280;11407;56.964;-2.212;2022-07-06T09:11:12;101523.28;;;31.57;37.72
22481;BME280;11407;56.964;-2.212;2022-07-06T09:13:37;101526.31;;;31.79;37.07
22481;BME280;11407;56.964;-2.212;2022-07-06T09:16:14;101533.78;;;31.83;37.32
22481;BME280;11407;56.964;-2.212;2022-07-06T09:18:44;101522.34;;;31.63;37.85
22481;BME280;11407;56.964;-2.212;2022-07-06T09:21:10;101518.22;;;31.43;38.82
22481;BME280;11407;56.964;-2.212;2022-07-06T09:23:37;101516.19;;;31.79;38.54
22481;BME280;11407;56.964;-2.212;2022-07-06T09:26:05;101519.28;;;31.71;38.44
22481;BME280;11407;56.964;-2.212;2022-07-06T09:28:43;101515.13;;;31.80;37.88
22481;BME280;11407;56.964;-2.212;2022-07-06T09:31:10;101512.66;;;31.90;37.85
22481;BME280;11407;56.964;-2.212;2022-07-06T09:33:35;101504.34;;;31.97;37.84
22481;BME280;11407;56.964;-2.212;2022-07-06T09:36:01;101496.22;;;32.20;37.82
22481;BME280;11407;56.964;-2.212;2022-07-06T09:38:27;101479.72;;;32.26;38.14
22481;BME280;11407;56.964;-2.212;2022-07-06T09:40:53;101488.31;;;32.57;37.92
22481;BME280;11407;56.964;-2.212;2022-07-06T09:43:22;101479.16;;;32.75;37.66
22481;BME280;11407;56.964;-2.212;2022-07-06T09:45:55;101490.09;;;33.58;35.46
22481;BME280;11407;56.964;-2.212;2022-07-06T09:48:23;101472.66;;;33.04;36.62
22481;BME280;11407;56.964;-2.212;2022-07-06T09:50:51;101484.59;;;32.86;36.81
22481;BME280;11407;56.964;-2.212;2022-07-06T09:53:19;101485.72;;;33.02;36.54
22481;BME280;11407;56.964;-2.212;2022-07-06T09:55:50;101481.94;;;33.03;36.10
22481;BME280;11407;56.964;-2.212;2022-07-06T09:58:16;101488.00;;;33.49;35.31
22481;BME280;11407;56.964;-2.212;2022-07-06T10:00:43;101491.16;;;33.13;36.40
22481;BME280;11407;56.964;-2.212;2022-07-06T10:03:10;101483.03;;;32.90;36.89
22481;BME280;11407;56.964;-2.212;2022-07-06T10:05:40;101484.56;;;32.98;35.61
22481;BME280;11407;56.964;-2.212;2022-07-06T10:08:07;101489.38;;;33.07;35.79
22481;BME280;11407;56.964;-2.212;2022-07-06T10:10:35;101478.03;;;32.87;35.95
22481;BME280;11407;56.964;-2.212;2022-07-06T10:13:01;101471.66;;;33.10;35.86
22481;BME280;11407;56.964;-2.212;2022-07-06T10:15:29;101469.63;;;32.89;35.72
22481;BME280;11407;56.964;-2.212;2022-07-06T10:18:03;101484.75;;;33.08;34.74
22481;BME280;11407;56.964;-2.212;2022-07-06T10:20:33;101467.47;;;33.18;35.47
22481;BME280;11407;56.964;-2.212;2022-07-06T10:23:00;101459.41;;;33.56;34.73
22481;BME280;11407;56.964;-2.212;2022-07-06T10:25:27;101464.22;;;33.33;35.18
22481;BME280;11407;56.964;-2.212;2022-07-06T10:27:53;101465.22;;;33.43;34.65
22481;BME280;11407;56.964;-2.212;2022-07-06T10:30:19;101473.25;;;33.33;34.32
22481;BME280;11407;56.964;-2.212;2022-07-06T10:32:47;101464.63;;;33.58;34.39
22481;BME280;11407;56.964;-2.212;2022-07-06T10:35:14;101459.09;;;33.36;34.95
22481;BME280;11407;56.964;-2.212;2022-07-06T10:37:40;101465.00;;;33.06;35.40
22481;BME280;11407;56.964;-2.212;2022-07-06T10:40:07;101450.50;;;33.17;35.36
22481;BME280;11407;56.964;-2.212;2022-07-06T10:42:59;101458.25;;;33.52;34.30
22481;BME280;11407;56.964;-2.212;2022-07-06T10:50:41;101431.84;;;34.50;33.75
22481;BME280;11407;56.964;-2.212;2022-07-06T10:53:21;101422.63;;;34.34;33.15
22481;BME280;11407;56.964;-2.212;2022-07-06T10:55:50;101415.16;;;34.30;34.66
22481;BME280;11407;56.964;-2.212;2022-07-06T11:01:00;101403.19;;;34.36;33.73
22481;BME280;11407;56.964;-2.212;2022-07-06T11:06:02;101409.19;;;34.76;32.53
22481;BME280;11407;56.964;-2.212;2022-07-06T11:13:51;101401.09;;;35.80;31.29
22481;BME280;11407;56.964;-2.212;2022-07-06T11:16:17;101403.75;;;35.07;32.52
22481;BME280;11407;56.964;-2.212;2022-07-06T11:18:48;101394.72;;;35.07;32.46
22481;BME280;11407;56.964;-2.212;2022-07-06T11:21:22;101391.75;;;35.44;31.07
22481;BME280;11407;56.964;-2.212;2022-07-06T11:23:50;101392.09;;;35.89;31.00
22481;BME280;11407;56.964;-2.212;2022-07-06T11:26:16;101399.72;;;35.82;30.91
22481;BME280;11407;56.964;-2.212;2022-07-06T11:28:45;101405.22;;;35.46;31.13
22481;BME280;11407;56.964;-2.212;2022-07-06T11:31:11;101410.56;;;34.57;32.80
22481;BME280;11407;56.964;-2.212;2022-07-06T11:33:36;101400.06;;;34.49;32.54
22481;BME280;11407;56.964;-2.212;2022-07-06T11:36:19;101395.09;;;35.20;31.23
22481;BME280;11407;56.964;-2.212;2022-07-06T11:38:47;101407.81;;;34.78;32.10
22481;BME280;11407;56.964;-2.212;2022-07-06T11:41:13;101407.56;;;34.37;32.41
22481;BME280;11407;56.964;-2.212;2022-07-06T11:43:47;101417.47;;;34.59;31.73
22481;BME280;11407;56.964;-2.212;2022-07-06T11:46:42;101408.72;;;34.41;31.20
22481;BME280;11407;56.964;-2.212;2022-07-06T11:49:08;101399.34;;;34.37;32.63
22481;BME280;11407;56.964;-2.212;2022-07-06T11:51:36;101399.50;;;34.25;32.45
22481;BME280;11407;56.964;-2.212;2022-07-06T11:54:11;101389.56;;;34.41;32.14
22481;BME280;11407;56.964;-2.212;2022-07-06T11:56:38;101376.31;;;34.12;32.98
22481;BME280;11407;56.964;-2.212;2022-07-06T11:59:10;101384.50;;;34.76;31.92
22481;BME280;11407;56.964;-2.212;2022-07-06T12:01:36;101387.50;;;33.94;33.36
22481;BME280;11407;56.964;-2.212;2022-07-06T12:04:06;101368.16;;;34.38;32.34
22481;BME280;11407;56.964;-2.212;2022-07-06T12:06:32;101376.63;;;34.15;32.83
22481;BME280;11407;56.964;-2.212;2022-07-06T12:08:59;101378.22;;;34.11;32.66
22481;BME280;11407;56.964;-2.212;2022-07-06T12:11:26;101368.88;;;34.55;32.24
22481;BME280;11407;56.964;-2.212;2022-07-06T12:13:54;101355.19;;;34.76;32.09
22481;BME280;11407;56.964;-2.212;2022-07-06T12:16:21;101350.88;;;34.85;32.30
22481;BME280;11407;56.964;-2.212;2022-07-06T12:18:49;101348.41;;;35.10;31.98
22481;BME280;11407;56.964;-2.212;2022-07-06T12:21:18;101330.72;;;35.27;32.10
22481;BME280;11407;56.964;-2.212;2022-07-06T12:23:46;101335.16;;;35.33;31.89
22481;BME280;11407;56.964;-2.212;2022-07-06T12:26:13;101333.63;;;35.47;32.10
22481;BME280;11407;56.964;-2.212;2022-07-06T12:28:39;101319.88;;;35.84;31.33
22481;BME280;11407;56.964;-2.212;2022-07-06T12:31:05;101330.41;;;36.73;30.10
22481;BME280;11407;56.964;-2.212;2022-07-06T12:33:31;101324.38;;;36.91;29.88
22481;BME280;11407;56.964;-2.212;2022-07-06T12:35:57;101302.38;;;37.10;29.45
22481;BME280;11407;56.964;-2.212;2022-07-06T12:38:33;101301.03;;;37.38;28.42
22481;BME280;11407;56.964;-2.212;2022-07-06T12:40:58;101305.66;;;37.22;29.06
22481;BME280;11407;56.964;-2.212;2022-07-06T12:43:40;101296.31;;;36.84;27.14
22481;BME280;11407;56.964;-2.212;2022-07-06T12:48:55;101288.34;;;37.42;27.98
22481;BME280;11407;56.964;-2.212;2022-07-06T12:51:22;101291.06;;;37.32;27.79
22481;BME280;11407;56.964;-2.212;2022-07-06T12:53:47;101286.91;;;37.59;27.72
22481;BME280;11407;56.964;-2.212;2022-07-06T12:56:13;101288.34;;;36.77;29.03
22481;BME280;11407;56.964;-2.212;2022-07-06T12:58:40;101301.44;;;36.40;28.74